createdAt,value
2019-02-19T00:00:52.671Z,43.33
2019-02-19T00:03:21.992Z,35.47
2019-02-19T00:05:51.469Z,43.97
2019-02-19T00:08:20.800Z,44.57
2019-02-19T00:10:50.596Z,34.43
2019-02-19T00:13:19.902Z,35.90
2019-02-19T00:15:49.471Z,36.30
2019-02-19T00:18:18.777Z,38.97
2019-02-19T00:20:48.301Z,48.23
2019-02-19T00:23:17.614Z,37.70
2019-02-19T00:25:47.188Z,42.13
2019-02-19T00:28:16.492Z,36.13
2019-02-19T00:30:46.105Z,35.70
2019-02-19T00:33:34.310Z,30.53
2019-02-19T00:36:04.888Z,35.57
2019-02-19T00:38:34.709Z,34.93
2019-02-19T00:41:04.038Z,36.50
2019-02-19T00:43:33.665Z,37.93
2019-02-19T00:46:02.991Z,36.33
2019-02-19T00:48:32.789Z,40.80
2019-02-19T00:51:02.100Z,36.48
2019-02-19T00:53:31.489Z,37.87
2019-02-19T00:59:15.415Z,30.07
2019-02-19T01:01:44.745Z,33.67
2019-02-19T01:04:14.055Z,34.60
2019-02-19T01:06:43.408Z,29.73
2019-02-19T01:09:12.723Z,34.07
2019-02-19T01:11:42.314Z,29.90
2019-02-19T01:14:11.607Z,29.27
2019-02-19T01:16:41.269Z,36.07
2019-02-19T01:19:10.630Z,31.73
2019-02-19T01:21:40.148Z,33.07
2019-02-19T01:24:09.481Z,32.13
2019-02-19T01:26:39.014Z,34.17
2019-02-19T01:29:08.303Z,41.13
2019-02-19T01:31:37.785Z,39.73
2019-02-19T01:34:07.109Z,37.90
2019-02-19T01:36:36.493Z,36.40
2019-02-19T01:39:45.209Z,36.90
2019-02-19T01:42:14.598Z,37.50
2019-02-19T01:44:43.898Z,37.50
2019-02-19T01:47:13.293Z,32.63
2019-02-19T01:49:42.662Z,35.57
2019-02-19T01:52:12.079Z,33.80
2019-02-19T01:55:00.464Z,40.60
2019-02-19T01:57:29.751Z,32.13
2019-02-19T02:00:18.180Z,37.23
2019-02-19T02:03:06.528Z,35.03
2019-02-19T02:05:36.085Z,30.03
2019-02-19T02:08:05.384Z,31.37
2019-02-19T02:10:34.891Z,37.83
2019-02-19T02:13:04.253Z,31.53
2019-02-19T02:15:33.566Z,34.97
2019-02-19T02:18:02.881Z,30.60
2019-02-19T02:20:32.817Z,37.70
2019-02-19T02:23:02.130Z,35.80
2019-02-19T02:25:31.536Z,33.80
2019-02-19T02:28:00.858Z,35.70
2019-02-19T02:30:30.440Z,35.40
2019-02-19T02:32:59.840Z,34.60
2019-02-19T02:35:29.625Z,35.60
2019-02-19T02:37:58.940Z,33.50
2019-02-19T02:40:28.406Z,33.43
2019-02-19T02:42:57.745Z,34.87
2019-02-19T02:45:27.365Z,41.77
2019-02-19T02:47:56.655Z,33.93
2019-02-19T02:50:26.137Z,31.73
2019-02-19T02:53:14.584Z,32.60
2019-02-19T02:56:02.796Z,34.67
2019-02-19T02:58:32.117Z,34.50
2019-02-19T03:01:01.673Z,33.40
2019-02-19T03:03:30.984Z,33.50
2019-02-19T03:06:20.688Z,29.60
2019-02-19T03:08:50.181Z,38.73
2019-02-19T03:11:19.472Z,33.23
2019-02-19T03:13:49.057Z,25.80
2019-02-19T03:16:18.383Z,28.20
2019-02-19T03:18:47.935Z,25.47
2019-02-19T03:21:17.220Z,27.53
2019-02-19T03:23:46.783Z,27.43
2019-02-19T03:26:16.105Z,28.80
2019-02-19T03:31:33.904Z,19.90
2019-02-19T03:34:03.270Z,24.93
2019-02-19T03:36:32.581Z,31.00
2019-02-19T03:39:01.901Z,29.33
2019-02-19T03:46:55.245Z,26.13
2019-02-19T03:49:43.695Z,31.50
2019-02-19T03:52:12.988Z,33.10
2019-02-19T03:54:42.475Z,29.03
2019-02-19T03:57:11.786Z,29.47
2019-02-19T03:59:41.299Z,27.13
2019-02-19T04:02:10.628Z,27.30
2019-02-19T04:04:40.159Z,33.40
2019-02-19T04:07:28.449Z,30.90
2019-02-19T04:09:57.836Z,29.87
2019-02-19T04:12:27.163Z,28.53
2019-02-19T04:14:56.443Z,32.00
2019-02-19T04:17:25.930Z,27.73
2019-02-19T04:19:55.268Z,32.60
2019-02-19T04:22:43.532Z,28.47
2019-02-19T04:25:12.929Z,32.07
2019-02-19T04:27:42.266Z,35.87
2019-02-19T04:30:30.714Z,28.53
2019-02-19T04:33:00.020Z,34.77
2019-02-19T04:35:29.372Z,31.20
2019-02-19T04:37:58.928Z,32.73
2019-02-19T04:40:28.295Z,29.00
2019-02-19T04:42:57.777Z,29.40
2019-02-19T04:45:27.120Z,30.07
2019-02-19T04:47:56.557Z,26.90
2019-02-19T04:50:25.933Z,27.77
2019-02-19T04:52:55.279Z,32.63
2019-02-19T04:55:24.785Z,39.73
2019-02-19T04:57:54.167Z,30.17
2019-02-19T05:00:42.640Z,27.37
2019-02-19T05:03:11.931Z,29.63
2019-02-19T05:05:41.257Z,30.53
2019-02-19T05:08:29.723Z,29.23
2019-02-19T05:10:59.060Z,29.93
2019-02-19T05:13:28.470Z,31.93
2019-02-19T05:16:16.818Z,37.73
2019-02-19T05:18:46.184Z,31.40
2019-02-19T05:21:15.619Z,29.47
2019-02-19T05:24:04.184Z,31.57
2019-02-19T05:26:52.452Z,33.40
2019-02-19T05:29:22.041Z,35.37
2019-02-19T05:31:51.392Z,28.67
2019-02-19T05:34:20.844Z,35.23
2019-02-19T05:36:50.162Z,27.03
2019-02-19T05:39:19.486Z,32.07
2019-02-19T05:42:08.040Z,26.57
2019-02-19T05:44:37.352Z,34.80
2019-02-19T05:47:07.043Z,27.57
2019-02-19T05:49:36.394Z,30.87
2019-02-19T05:52:06.127Z,26.23
2019-02-19T05:54:54.346Z,27.57
2019-02-19T05:57:23.670Z,25.67
2019-02-19T05:59:53.238Z,30.57
2019-02-19T06:02:22.548Z,32.73
2019-02-19T06:04:52.007Z,26.10
2019-02-19T06:07:21.334Z,20.57
2019-02-19T06:09:51.032Z,32.17
2019-02-19T06:12:20.487Z,37.03
2019-02-19T06:14:50.805Z,33.27
2019-02-19T06:17:20.130Z,30.07
2019-02-19T06:19:49.646Z,31.03
2019-02-19T06:22:19.044Z,28.23
2019-02-19T06:27:36.864Z,35.13
2019-02-19T06:30:08.505Z,33.73
2019-02-19T06:32:37.801Z,32.17
2019-02-19T06:35:26.147Z,31.37
2019-02-19T06:37:55.820Z,25.97
2019-02-19T06:40:29.493Z,29.87
2019-02-19T06:42:59.328Z,33.47
2019-02-19T06:45:28.667Z,30.93
2019-02-19T06:47:58.099Z,28.10
2019-02-19T06:50:27.435Z,32.40
2019-02-19T06:52:56.811Z,28.10
2019-02-19T06:55:26.131Z,32.07
2019-02-19T06:57:55.558Z,32.17
2019-02-19T07:00:24.855Z,28.37
2019-02-19T07:05:38.370Z,29.63
2019-02-19T07:08:07.770Z,25.40
2019-02-19T07:10:37.130Z,30.63
2019-02-19T07:13:06.430Z,24.20
2019-02-19T07:15:36.969Z,27.87
2019-02-19T07:18:25.721Z,29.13
2019-02-19T07:21:16.403Z,24.60
2019-02-19T07:24:05.620Z,30.00
2019-02-19T07:26:35.396Z,22.17
2019-02-19T07:29:05.928Z,23.90
2019-02-19T07:31:35.992Z,25.07
2019-02-19T07:34:44.908Z,28.17
2019-02-19T07:37:16.541Z,23.37
2019-02-19T07:43:14.595Z,27.50
2019-02-19T07:45:45.315Z,22.67
2019-02-19T07:48:15.131Z,23.80
2019-02-19T07:50:45.980Z,27.03
2019-02-19T07:53:15.941Z,27.13
2019-02-19T07:55:47.065Z,24.10
2019-02-19T07:58:16.760Z,24.30
2019-02-19T08:00:46.373Z,22.77
2019-02-19T08:03:35.583Z,22.03
2019-02-19T08:06:05.018Z,25.23
2019-02-19T08:08:34.657Z,25.80
2019-02-19T08:11:04.050Z,20.33
2019-02-19T08:13:33.732Z,21.70
2019-02-19T08:19:02.830Z,27.33
2019-02-19T08:21:32.697Z,32.63
2019-02-19T08:24:02.419Z,23.57
2019-02-19T08:26:51.036Z,28.90
2019-02-19T08:29:20.648Z,23.73
2019-02-19T08:31:50.366Z,23.27
2019-02-19T08:34:19.792Z,19.20
2019-02-19T08:36:49.147Z,20.20
2019-02-19T08:39:37.490Z,21.50
2019-02-19T08:42:06.942Z,21.93
2019-02-19T08:44:43.703Z,18.93
2019-02-19T08:47:42.373Z,15.00
2019-02-19T08:50:05.816Z,18.30
2019-02-19T08:52:35.121Z,18.13
2019-02-19T08:55:27.301Z,17.00
2019-02-19T08:57:56.760Z,16.47
2019-02-19T09:00:26.108Z,23.30
2019-02-19T09:02:55.437Z,27.70
2019-02-19T09:05:24.773Z,15.67
2019-02-19T09:07:54.397Z,16.23
2019-02-19T09:10:23.687Z,21.00
2019-02-19T09:12:53.024Z,12.67
2019-02-19T09:15:41.363Z,14.33
2019-02-19T09:18:10.672Z,19.33
2019-02-19T09:20:40.278Z,14.83
2019-02-19T09:23:28.725Z,15.93
2019-02-19T09:25:58.014Z,18.17
2019-02-19T09:28:27.401Z,21.37
2019-02-19T09:30:56.683Z,19.73
2019-02-19T09:33:26.250Z,16.90
2019-02-19T09:35:55.535Z,21.50
2019-02-19T09:38:25.088Z,18.07
2019-02-19T09:40:54.448Z,17.03
2019-02-19T09:43:23.870Z,14.80
2019-02-19T09:45:53.157Z,19.53
2019-02-19T09:48:41.522Z,13.87
2019-02-19T09:51:11.004Z,12.33
2019-02-19T09:53:40.300Z,15.83
2019-02-19T09:56:10.299Z,14.40
2019-02-19T09:58:39.573Z,16.67
2019-02-19T10:01:09.083Z,16.73
2019-02-19T10:03:38.372Z,19.20
2019-02-19T10:06:07.832Z,20.90
2019-02-19T10:08:37.131Z,14.93
2019-02-19T10:11:06.544Z,27.83
2019-02-19T10:13:35.850Z,23.17
2019-02-19T10:16:05.390Z,16.37
2019-02-19T10:18:34.669Z,18.50
2019-02-19T10:21:04.350Z,19.43
2019-02-19T10:23:52.781Z,15.27
2019-02-19T10:26:22.095Z,15.20
2019-02-19T10:28:51.625Z,15.77
2019-02-19T10:31:20.928Z,12.47
2019-02-19T10:33:50.461Z,18.13
2019-02-19T10:39:12.069Z,15.43
2019-02-19T10:41:41.417Z,16.40
2019-02-19T10:44:10.805Z,20.13
2019-02-19T10:46:40.084Z,8.63
2019-02-19T10:49:09.421Z,7.03
2019-02-19T10:51:38.789Z,11.60
2019-02-19T10:54:08.142Z,13.27
2019-02-19T10:56:37.532Z,9.10
2019-02-19T10:59:06.968Z,10.67
2019-02-19T11:01:36.346Z,10.73
2019-02-19T11:04:24.676Z,8.77
2019-02-19T11:06:53.979Z,9.60
2019-02-19T11:09:42.427Z,10.93
2019-02-19T11:12:11.809Z,4.33
2019-02-19T11:14:41.089Z,6.90
2019-02-19T11:17:10.440Z,6.77
2019-02-19T11:19:39.728Z,6.77
2019-02-19T11:22:09.256Z,5.90
2019-02-19T11:24:38.552Z,8.63
2019-02-19T11:27:08.075Z,3.60
2019-02-19T11:29:37.384Z,6.07
2019-02-19T11:32:06.898Z,3.57
2019-02-19T11:34:36.179Z,1.90
2019-02-19T11:37:05.462Z,10.10
2019-02-19T11:39:54.042Z,2.70
2019-02-19T11:42:23.337Z,5.13
2019-02-19T11:44:52.684Z,1.53
2019-02-19T11:47:26.553Z,4.37
2019-02-19T11:49:53.227Z,4.63
2019-02-19T11:52:22.529Z,2.40
2019-02-19T11:54:52.029Z,8.10
2019-02-19T11:57:32.688Z,1.07
2019-02-19T12:00:02.400Z,4.33
2019-02-19T12:02:33.141Z,3.60
2019-02-19T12:05:02.754Z,4.03
2019-02-19T12:07:32.096Z,5.90
2019-02-19T12:10:01.603Z,7.07
2019-02-19T12:12:31.025Z,4.83
2019-02-19T12:15:00.363Z,5.17
2019-02-19T12:17:48.695Z,5.23
2019-02-19T12:20:18.006Z,9.78
2019-02-19T12:25:35.664Z,11.07
2019-02-19T12:28:04.968Z,9.07
2019-02-19T12:30:34.278Z,8.30
2019-02-19T12:33:03.613Z,13.53
2019-02-19T12:35:33.032Z,7.07
2019-02-19T12:38:02.329Z,10.67
2019-02-19T12:40:31.654Z,4.20
2019-02-19T12:43:00.944Z,5.47
2019-02-19T12:45:30.282Z,8.77
2019-02-19T12:47:59.599Z,8.27
2019-02-19T12:50:29.259Z,14.47
2019-02-19T12:52:58.620Z,5.97
2019-02-19T12:55:28.292Z,6.37
2019-02-19T12:57:57.567Z,9.73
2019-02-19T13:00:27.213Z,5.57
2019-02-19T13:02:56.483Z,4.63
2019-02-19T13:05:26.170Z,8.67
2019-02-19T13:07:55.454Z,7.83
2019-02-19T13:10:25.491Z,12.43
2019-02-19T13:12:54.750Z,5.63
2019-02-19T13:15:24.262Z,8.00
2019-02-19T13:17:53.572Z,10.03
2019-02-19T13:20:23.009Z,5.20
2019-02-19T13:22:52.290Z,5.47
2019-02-19T13:25:21.759Z,11.63
2019-02-19T13:27:51.065Z,10.10
2019-02-19T13:30:20.409Z,10.83
2019-02-19T13:35:43.980Z,5.47
2019-02-19T13:38:13.288Z,12.00
2019-02-19T13:40:42.923Z,8.47
2019-02-19T13:46:00.467Z,14.07
2019-02-19T13:48:29.899Z,11.13
2019-02-19T13:50:59.186Z,10.87
2019-02-19T13:53:47.543Z,9.30
2019-02-19T13:56:17.154Z,11.23
2019-02-19T13:58:46.521Z,15.03
2019-02-19T14:01:16.045Z,12.30
2019-02-19T14:03:45.308Z,9.23
2019-02-19T14:06:14.787Z,17.03
2019-02-19T14:11:40.319Z,10.87
2019-02-19T14:14:28.464Z,11.33
2019-02-19T14:17:01.069Z,12.13
2019-02-19T14:19:47.868Z,15.70
2019-02-19T14:22:36.466Z,13.63
2019-02-19T14:25:25.502Z,9.07
2019-02-19T14:28:14.034Z,11.13
2019-02-19T14:31:02.298Z,13.77
2019-02-19T14:33:50.646Z,10.70
2019-02-19T14:36:38.935Z,13.37
2019-02-19T14:42:30.615Z,7.47
2019-02-19T14:45:08.908Z,12.00
2019-02-19T14:48:03.844Z,10.57
2019-02-19T14:51:01.093Z,11.57
2019-02-19T14:53:47.865Z,7.57
2019-02-19T14:56:33.075Z,13.70
2019-02-19T14:59:21.317Z,12.47
2019-02-19T15:02:02.827Z,11.83
2019-02-19T15:04:51.286Z,12.47
2019-02-19T15:07:48.622Z,9.40
2019-02-19T15:10:36.886Z,11.43
2019-02-19T15:13:31.106Z,11.67
2019-02-19T15:16:19.469Z,9.17
2019-02-19T15:19:08.103Z,15.13
2019-02-19T15:21:56.367Z,9.90
2019-02-19T15:24:44.716Z,12.70
2019-02-19T15:27:52.112Z,13.87
2019-02-19T15:30:40.419Z,8.80
2019-02-19T15:33:28.617Z,15.10
2019-02-19T15:36:15.494Z,8.80
2019-02-19T15:39:03.697Z,12.43
2019-02-19T15:41:52.252Z,15.50
2019-02-19T15:44:40.802Z,11.80
2019-02-19T15:47:29.297Z,11.47
2019-02-19T15:50:17.804Z,8.97
2019-02-19T15:53:05.995Z,11.40
2019-02-19T15:55:54.261Z,11.67
2019-02-19T15:58:33.687Z,15.20
2019-02-19T16:01:22.145Z,14.20
2019-02-19T16:04:10.432Z,13.47
2019-02-19T16:06:58.823Z,10.10
2019-02-19T16:09:47.213Z,12.00
2019-02-19T16:12:21.978Z,6.90
2019-02-19T16:15:16.465Z,14.40
2019-02-19T16:18:10.664Z,13.20
2019-02-19T16:20:58.856Z,12.95
2019-02-19T16:23:47.054Z,13.67
2019-02-19T16:26:35.283Z,8.23
2019-02-19T16:29:14.051Z,7.93
2019-02-19T16:32:21.300Z,6.50
2019-02-19T16:35:09.543Z,8.80
2019-02-19T16:37:58.027Z,8.50
2019-02-19T16:40:46.515Z,6.83
2019-02-19T16:43:33.743Z,7.80
2019-02-19T16:46:11.528Z,11.63
2019-02-19T16:48:58.540Z,7.03
2019-02-19T16:52:05.767Z,10.00
2019-02-19T16:54:53.995Z,5.23
2019-02-19T16:57:42.318Z,8.13
2019-02-19T17:03:32.071Z,15.83
2019-02-19T17:06:20.513Z,12.80
2019-02-19T17:09:08.780Z,16.47
2019-02-19T17:11:57.079Z,9.97
2019-02-19T17:14:45.296Z,11.07
2019-02-19T17:17:33.528Z,10.83
2019-02-19T17:20:17.783Z,16.07
2019-02-19T17:22:45.420Z,10.00
2019-02-19T17:25:33.655Z,10.27
2019-02-19T17:28:21.852Z,14.47
2019-02-19T17:31:10.037Z,15.07
2019-02-19T17:33:57.196Z,9.33
2019-02-19T17:37:04.435Z,9.60
2019-02-19T17:39:52.748Z,16.40
2019-02-19T17:42:39.623Z,15.07
2019-02-19T17:45:20.244Z,12.30
2019-02-19T17:48:08.569Z,19.80
2019-02-19T17:50:57.199Z,12.23
2019-02-19T17:53:45.399Z,13.10
2019-02-19T17:56:33.677Z,18.67
2019-02-19T17:59:22.000Z,14.53
2019-02-19T18:02:10.234Z,13.07
2019-02-19T18:04:58.438Z,16.97
2019-02-19T18:07:40.675Z,16.60
2019-02-19T18:10:28.916Z,13.10
2019-02-19T18:13:37.824Z,19.17
2019-02-19T18:16:25.951Z,13.97
2019-02-19T18:18:55.319Z,12.23
2019-02-19T18:21:24.691Z,17.17
2019-02-19T18:23:54.038Z,14.70
2019-02-19T18:26:23.503Z,15.57
2019-02-19T18:28:52.793Z,14.40
2019-02-19T18:31:22.131Z,20.37
2019-02-19T18:33:51.558Z,11.40
2019-02-19T18:36:20.842Z,13.63
2019-02-19T18:38:50.159Z,14.87
2019-02-19T18:41:19.472Z,16.27
2019-02-19T18:43:48.789Z,14.30
2019-02-19T18:46:18.080Z,15.73
2019-02-19T18:48:47.385Z,20.80
2019-02-19T18:51:16.753Z,11.27
2019-02-19T18:53:46.052Z,14.10
2019-02-19T18:56:15.375Z,17.70
2019-02-19T18:58:44.732Z,21.77
2019-02-19T19:01:14.204Z,25.83
2019-02-19T19:03:43.710Z,13.47
2019-02-19T19:06:13.031Z,10.53
2019-02-19T19:08:42.364Z,22.20
2019-02-19T19:11:11.684Z,14.80
2019-02-19T19:13:41.000Z,18.27
2019-02-19T19:16:10.679Z,13.57
2019-02-19T19:18:40.005Z,11.73
2019-02-19T19:21:09.433Z,22.57
2019-02-19T19:23:39.052Z,10.60
2019-02-19T19:26:08.458Z,17.37
2019-02-19T19:28:37.746Z,10.50
2019-02-19T19:31:07.562Z,13.13
2019-02-19T19:33:36.894Z,6.47
2019-02-19T19:36:06.552Z,17.47
2019-02-19T19:38:54.978Z,8.80
2019-02-19T19:41:24.469Z,14.90
2019-02-19T19:43:53.935Z,14.20
2019-02-19T19:46:23.639Z,11.47
2019-02-19T19:52:03.217Z,14.00
2019-02-19T19:54:33.150Z,12.63
2019-02-19T19:57:04.396Z,13.60
2019-02-19T19:59:34.067Z,13.73
2019-02-19T20:04:38.316Z,23.73
2019-02-19T20:07:07.686Z,13.90
2019-02-19T20:09:37.290Z,14.03
2019-02-19T20:12:06.670Z,18.03
2019-02-19T20:14:36.152Z,20.17
2019-02-19T20:17:05.536Z,18.07
2019-02-19T20:19:35.481Z,13.23
2019-02-19T20:22:04.976Z,10.20
2019-02-19T20:24:34.352Z,13.10
2019-02-19T20:27:24.908Z,15.37
2019-02-19T20:29:54.199Z,13.50
2019-02-19T20:32:23.516Z,20.97
2019-02-19T20:35:11.762Z,15.07
2019-02-19T20:37:41.059Z,9.97
2019-02-19T20:40:10.467Z,16.90
2019-02-19T20:42:39.773Z,14.37
2019-02-19T20:45:09.455Z,12.07
2019-02-19T20:47:38.803Z,17.30
2019-02-19T20:50:09.248Z,14.40
2019-02-19T20:52:38.546Z,25.80
2019-02-19T20:55:08.348Z,13.50
2019-02-19T20:57:37.649Z,17.10
2019-02-19T21:00:29.949Z,18.97
2019-02-19T21:02:59.279Z,17.13
2019-02-19T21:05:28.905Z,11.87
2019-02-19T21:07:58.221Z,28.23
2019-02-19T21:10:27.746Z,14.87
2019-02-19T21:15:45.296Z,13.30
2019-02-19T21:18:15.030Z,10.30
2019-02-19T21:20:44.315Z,24.17
2019-02-19T21:23:14.259Z,13.77
2019-02-19T21:25:43.534Z,21.07
2019-02-19T21:28:13.301Z,15.13
2019-02-19T21:30:42.581Z,20.83
2019-02-19T21:33:12.027Z,13.40
2019-02-19T21:35:41.350Z,12.80
2019-02-19T21:38:10.942Z,26.30
2019-02-19T21:40:40.271Z,9.70
2019-02-19T21:43:09.682Z,9.30
2019-02-19T21:45:38.987Z,10.43
2019-02-19T21:48:08.448Z,10.73
2019-02-19T21:50:37.802Z,8.33
2019-02-19T21:53:07.215Z,19.17
2019-02-19T21:55:55.608Z,16.80
2019-02-19T21:58:44.095Z,12.97
2019-02-19T22:01:13.390Z,22.23
2019-02-19T22:03:43.943Z,16.77
2019-02-19T22:06:13.403Z,14.70
2019-02-19T22:08:42.879Z,17.10
2019-02-19T22:11:12.152Z,10.70
2019-02-19T22:13:41.627Z,16.10
2019-02-19T22:16:10.914Z,10.23
2019-02-19T22:18:40.298Z,15.53
2019-02-19T22:21:28.680Z,21.80
2019-02-19T22:23:57.961Z,13.37
2019-02-19T22:26:27.256Z,8.23
2019-02-19T22:31:31.298Z,13.97
2019-02-19T22:34:00.687Z,17.90
2019-02-19T22:36:30.057Z,18.10
2019-02-19T22:38:59.395Z,13.07
2019-02-19T22:44:03.815Z,14.30
2019-02-19T22:46:33.111Z,14.10
2019-02-19T22:49:02.398Z,14.77
2019-02-19T22:51:31.683Z,9.27
2019-02-19T22:54:20.170Z,18.17
2019-02-19T22:56:49.549Z,10.33
2019-02-19T22:59:18.861Z,18.00
2019-02-19T23:04:57.162Z,10.13
2019-02-19T23:07:26.535Z,18.97
2019-02-19T23:09:55.824Z,11.63
2019-02-19T23:12:25.360Z,10.70
2019-02-19T23:14:54.628Z,17.20
2019-02-19T23:17:42.813Z,10.17
2019-02-19T23:23:00.828Z,16.00
2019-02-19T23:25:30.235Z,15.03
2019-02-19T23:30:48.281Z,10.20
2019-02-19T23:33:17.554Z,8.77
2019-02-19T23:36:05.989Z,7.17
2019-02-19T23:38:35.268Z,13.77
2019-02-19T23:41:04.547Z,8.10
2019-02-19T23:43:34.081Z,16.00
2019-02-19T23:46:03.380Z,13.50
2019-02-19T23:48:32.977Z,14.43
2019-02-19T23:51:02.271Z,10.37
2019-02-19T23:53:50.599Z,8.07
2019-02-19T23:56:20.245Z,13.37
2019-02-19T23:58:49.523Z,10.50
